Loughrea, Ireland
Current Conditions -  °F | °C
As of 8:00 AM on Thursday 29 Jan 2015 (Local Time) from EINN Reporting Station
Scattered Clouds Scattered Clouds  
Wind Chill: 30°   Ceiling: Unl
Heat Index: 41°   Visibility: 6mi
Dew Point: 32°   Wind: 30mph
Humidity: 70%   Direction: 270°W
Pressure: 29.18"   Gusts: 41mph
Location:  53.2°N, 8.57°W
Report Text: EINN 290800Z 27026G36KT 9999 FEW012 SCT018CB 05/00 Q0988 NOSIG
Loading
Personal Weather Stations






























Interactive Weather Map New forecast layout! Learn more

10-Day Weather Forecast

Advertisements
Track Severe Weather on mobile